Terminal Aerodrome Forecast
Issued by NWS Quad Cities IA IL

Home | Current Version | Previous Version | Text Only | Print | Product List | Glossary On
Versions: 1 2 3 4 5 6 7 8 9 10 11 12 13 14 15 16 17 18 19
000
FTUS43 KDVN 271100
TAFMLI
TAF
KMLI 271120Z 2712/2812 35008KT P6SM OVC035
     FM271500 01006KT P6SM SCT015 BKN030
     FM272000 05006KT P6SM SCT030 SCT250
     FM280000 14007KT P6SM SCT250=

USA.gov is the U.S. government's official web portal to all federal, state and local government web resources and services.